Time;durP1;ratioP1;P1;durP2;ratioP2;P2;SDS_P1;SDS_P2;PMS_P1;PMS_P2;Temp;Humidity;BMP_temperature;BMP_pressure;BME280_temperature;BME280_humidity;BME280_pressure;Samples;Min_cycle;Max_cycle;Signal;HPM_P1;HPM_P2
2020/12/08 00:01:36;;;;;;;;;;;2.30;99.90;;;;;;5037289;28;19955;-87
2020/12/08 00:04:01;;;;;;;;;;;2.30;99.90;;;;;;5037020;28;19908;-87
2020/12/08 00:06:27;;;;;;;;;;;2.30;99.90;;;;;;5037270;28;19956;-87
2020/12/08 00:08:55;;;;;;;;;;;2.20;99.90;;;;;;5037253;28;19913;-88
2020/12/08 00:11:20;;;;;;;;;;;2.20;99.90;;;;;;5037242;28;20007;-87
2020/12/08 00:13:46;;;;;;;;;;;2.20;99.90;;;;;;5036882;28;19963;-87
2020/12/08 00:16:12;;;;;;;;;;;2.20;99.90;;;;;;5037154;28;19909;-87
2020/12/08 00:18:38;;;;;;;;;;;2.20;99.90;;;;;;5036971;28;19983;-89
2020/12/08 00:21:04;;;;;;;;;;;2.20;99.90;;;;;;5036990;28;19909;-88
2020/12/08 00:23:29;;;;;;;;;;;2.20;99.90;;;;;;5036874;28;20276;-88
2020/12/08 00:25:55;;;;;;;;;;;2.30;99.90;;;;;;5036792;28;19909;-89
2020/12/08 00:28:23;;;;;;;;;;;2.20;99.90;;;;;;5036605;28;20364;-88
2020/12/08 00:30:49;;;;;;;;;;;2.20;99.90;;;;;;5036331;28;19925;-87
2020/12/08 00:33:14;;;;;;;;;;;2.20;99.90;;;;;;5036691;28;19934;-86
2020/12/08 00:35:40;;;;;;;;;;;2.30;99.90;;;;;;5036870;28;19909;-86
2020/12/08 00:38:08;;;;;;;;;;;2.30;99.90;;;;;;5036498;28;19923;-86
2020/12/08 00:40:33;;;;;;;;;;;2.30;99.90;;;;;;5036708;28;19913;-86
2020/12/08 00:43:04;;;;;;;;;;;2.30;99.90;;;;;;5036487;28;19920;-86
2020/12/08 00:45:29;;;;;;;;;;;2.30;99.90;;;;;;5036192;28;19913;-88
2020/12/08 00:47:57;;;;;;;;;;;2.30;99.90;;;;;;5036233;28;20025;-87
2020/12/08 00:50:25;;;;;;;;;;;2.30;99.90;;;;;;5036584;28;19995;-87
2020/12/08 00:52:51;;;;;;;;;;;2.30;99.90;;;;;;5036443;28;19972;-88
2020/12/08 00:55:19;;;;;;;;;;;2.30;99.90;;;;;;5036412;28;19959;-87
2020/12/08 00:57:46;;;;;;;;;;;2.30;99.90;;;;;;5053933;28;19913;-88
2020/12/08 01:00:12;;;;;;;;;;;2.30;99.90;;;;;;5036188;28;20055;-88
2020/12/08 01:02:37;;;;;;;;;;;2.30;99.90;;;;;;5036219;28;20003;-89
2020/12/08 01:05:11;;;;;;;;;;;2.30;99.90;;;;;;5036244;28;19909;-88
2020/12/08 01:07:39;;;;;;;;;;;2.30;99.90;;;;;;5036441;28;20005;-86
2020/12/08 01:10:05;;;;;;;;;;;2.30;99.90;;;;;;5036376;28;19916;-87
2020/12/08 01:12:30;;;;;;;;;;;2.30;99.90;;;;;;5036275;28;19916;-86
2020/12/08 01:14:58;;;;;;;;;;;2.30;99.90;;;;;;5036214;28;19926;-88
2020/12/08 01:17:24;;;;;;;;;;;2.30;99.90;;;;;;5036028;28;19913;-88
2020/12/08 01:19:50;;;;;;;;;;;2.40;99.90;;;;;;5036017;28;19923;-89
2020/12/08 01:22:15;;;;;;;;;;;2.40;99.90;;;;;;5036125;28;20015;-86
2020/12/08 01:24:41;;;;;;;;;;;2.40;99.90;;;;;;5035879;28;19948;-87
2020/12/08 01:27:09;;;;;;;;;;;2.40;99.90;;;;;;5036127;28;19952;-87
2020/12/08 01:29:34;;;;;;;;;;;2.40;99.90;;;;;;5035716;28;19916;-86
2020/12/08 01:32:02;;;;;;;;;;;2.40;99.90;;;;;;5035832;28;19920;-89
2020/12/08 01:34:28;;;;;;;;;;;2.40;99.90;;;;;;5035559;28;19913;-87
2020/12/08 01:36:56;;;;;;;;;;;2.40;99.90;;;;;;5035397;28;19962;-88
2020/12/08 01:39:22;;;;;;;;;;;2.40;99.90;;;;;;5035441;28;19913;-87
2020/12/08 01:41:47;;;;;;;;;;;2.40;99.90;;;;;;5037593;28;19916;-87
2020/12/08 01:44:15;;;;;;;;;;;2.40;99.90;;;;;;5039669;28;20284;-86
2020/12/08 01:46:41;;;;;;;;;;;2.40;99.90;;;;;;5040059;28;20011;-87
2020/12/08 01:49:07;;;;;;;;;;;2.40;99.90;;;;;;5039683;28;20013;-86
2020/12/08 01:51:32;;;;;;;;;;;2.40;99.90;;;;;;5039376;28;19916;-87
2020/12/08 01:53:58;;;;;;;;;;;2.40;99.90;;;;;;5039896;28;19916;-87
2020/12/08 01:56:27;;;;;;;;;;;2.40;99.90;;;;;;5039485;28;19916;-88
2020/12/08 01:58:52;;;;;;;;;;;2.40;99.90;;;;;;5039421;28;19913;-86
2020/12/08 02:01:18;;;;;;;;;;;2.40;99.90;;;;;;5039465;28;20353;-86
2020/12/08 02:03:47;;;;;;;;;;;2.40;99.90;;;;;;5039154;28;19962;-88
2020/12/08 02:06:13;;;;;;;;;;;2.40;99.90;;;;;;5039155;28;19909;-85
2020/12/08 02:08:38;;;;;;;;;;;2.40;99.90;;;;;;5038872;28;19915;-88
2020/12/08 02:11:05;;;;;;;;;;;2.40;99.90;;;;;;5039168;28;19916;-86
2020/12/08 02:13:33;;;;;;;;;;;2.40;99.90;;;;;;5039053;28;19912;-88
2020/12/08 02:15:59;;;;;;;;;;;2.40;99.90;;;;;;5039338;28;20011;-86
2020/12/08 02:18:27;;;;;;;;;;;2.40;99.90;;;;;;5039133;28;20050;-88
2020/12/08 02:20:56;;;;;;;;;;;2.40;99.90;;;;;;5039251;28;19913;-86
2020/12/08 02:23:24;;;;;;;;;;;2.40;99.90;;;;;;5039097;28;19909;-87
2020/12/08 02:26:00;;;;;;;;;;;2.40;99.90;;;;;;5039121;28;19916;-86
2020/12/08 02:28:26;;;;;;;;;;;2.40;99.90;;;;;;5039265;28;19909;-87
2020/12/08 02:30:52;;;;;;;;;;;2.40;99.90;;;;;;5038849;28;19928;-88
2020/12/08 02:33:21;;;;;;;;;;;2.40;99.90;;;;;;5039063;28;20400;-87
2020/12/08 02:35:49;;;;;;;;;;;2.40;99.90;;;;;;5038809;28;19931;-88
2020/12/08 02:38:14;;;;;;;;;;;2.40;99.90;;;;;;5056288;28;20364;-86
2020/12/08 02:40:40;;;;;;;;;;;2.40;99.90;;;;;;5039318;28;19963;-86
2020/12/08 02:43:05;;;;;;;;;;;2.40;99.90;;;;;;5038986;28;20352;-85
2020/12/08 02:45:31;;;;;;;;;;;2.40;99.90;;;;;;5038526;28;20402;-88
2020/12/08 02:47:56;;;;;;;;;;;2.40;99.90;;;;;;5038962;28;19909;-86
2020/12/08 02:50:22;;;;;;;;;;;2.40;99.90;;;;;;5038863;28;19909;-86
2020/12/08 02:52:47;;;;;;;;;;;2.40;99.90;;;;;;5037067;28;20413;-88
2020/12/08 02:55:15;;;;;;;;;;;2.40;99.90;;;;;;5038717;28;19913;-88
2020/12/08 02:57:40;;;;;;;;;;;2.40;99.90;;;;;;5038701;28;20034;-86
2020/12/08 03:00:08;;;;;;;;;;;2.40;99.90;;;;;;5038424;28;19924;-88
2020/12/08 03:02:34;;;;;;;;;;;2.40;99.90;;;;;;5038536;28;20054;-87
2020/12/08 03:04:59;;;;;;;;;;;2.50;99.90;;;;;;5038394;28;20344;-88
2020/12/08 03:07:25;;;;;;;;;;;2.40;99.90;;;;;;5038048;28;20011;-87
2020/12/08 03:09:50;;;;;;;;;;;2.40;99.90;;;;;;5038345;28;19952;-87
2020/12/08 03:12:16;;;;;;;;;;;2.40;99.90;;;;;;5038172;28;20371;-87
2020/12/08 03:14:43;;;;;;;;;;;2.50;99.90;;;;;;5038353;28;19912;-87
2020/12/08 03:17:09;;;;;;;;;;;2.40;99.90;;;;;;5037995;28;19912;-86
2020/12/08 03:19:34;;;;;;;;;;;2.50;99.90;;;;;;5038078;28;19913;-87
2020/12/08 03:22:00;;;;;;;;;;;2.40;99.90;;;;;;5037859;28;19909;-89
2020/12/08 03:24:25;;;;;;;;;;;2.40;99.90;;;;;;5037981;28;19909;-88
2020/12/08 03:26:54;;;;;;;;;;;2.40;99.90;;;;;;5038054;28;19909;-86
2020/12/08 03:29:19;;;;;;;;;;;2.30;99.90;;;;;;5038052;28;19909;-86
2020/12/08 03:31:45;;;;;;;;;;;2.30;99.90;;;;;;5037836;28;19921;-86
2020/12/08 03:34:10;;;;;;;;;;;2.20;99.90;;;;;;5037743;28;20011;-86
2020/12/08 03:36:36;;;;;;;;;;;2.20;99.90;;;;;;5037990;28;19909;-86
2020/12/08 03:39:02;;;;;;;;;;;2.20;99.90;;;;;;5037796;28;19919;-88
2020/12/08 03:41:29;;;;;;;;;;;2.20;99.90;;;;;;5037863;28;20345;-86
2020/12/08 03:43:55;;;;;;;;;;;2.10;99.90;;;;;;5037820;28;19909;-88
2020/12/08 03:46:21;;;;;;;;;;;2.20;99.90;;;;;;5037534;28;19931;-88
2020/12/08 03:48:47;;;;;;;;;;;2.10;99.90;;;;;;5037556;28;19915;-87
2020/12/08 03:51:22;;;;;;;;;;;2.10;99.90;;;;;;5037291;28;19936;-87
2020/12/08 03:53:49;;;;;;;;;;;2.10;99.90;;;;;;5055295;28;19909;-87
2020/12/08 03:56:16;;;;;;;;;;;2.10;99.90;;;;;;5037337;28;19931;-86
2020/12/08 03:58:42;;;;;;;;;;;2.10;99.90;;;;;;5037164;28;19917;-88
2020/12/08 04:01:15;;;;;;;;;;;2.00;99.90;;;;;;5037261;28;19909;-86
2020/12/08 04:03:42;;;;;;;;;;;2.00;99.90;;;;;;5037048;28;19916;-86
2020/12/08 04:06:07;;;;;;;;;;;2.00;99.90;;;;;;5037353;28;20280;-85
2020/12/08 04:08:34;;;;;;;;;;;1.90;99.90;;;;;;5036860;28;20464;-86
2020/12/08 04:11:00;;;;;;;;;;;1.90;99.90;;;;;;5054932;28;19932;-86
2020/12/08 04:13:25;;;;;;;;;;;2.00;99.90;;;;;;5037042;28;19915;-86
2020/12/08 04:15:51;;;;;;;;;;;1.90;99.90;;;;;;5037105;28;19920;-86
2020/12/08 04:18:19;;;;;;;;;;;1.90;99.90;;;;;;5036926;28;20099;-87
2020/12/08 04:20:44;;;;;;;;;;;1.90;99.90;;;;;;5036990;28;20426;-86
2020/12/08 04:23:11;;;;;;;;;;;1.90;99.90;;;;;;5054278;28;19921;-86
2020/12/08 04:25:39;;;;;;;;;;;1.90;99.90;;;;;;5036124;28;19913;-88
2020/12/08 04:28:05;;;;;;;;;;;1.90;99.90;;;;;;5036199;28;19913;-86
2020/12/08 04:30:31;;;;;;;;;;;1.90;99.90;;;;;;5036151;28;20287;-86
2020/12/08 04:32:57;;;;;;;;;;;1.90;99.90;;;;;;5036150;28;19913;-87
2020/12/08 04:35:22;;;;;;;;;;;1.90;99.90;;;;;;5036531;28;19948;-87
2020/12/08 04:37:48;;;;;;;;;;;1.80;99.90;;;;;;5036021;28;19913;-88
2020/12/08 04:40:13;;;;;;;;;;;1.80;99.90;;;;;;5036190;28;19960;-86
2020/12/08 04:42:48;;;;;;;;;;;1.80;99.90;;;;;;5053913;28;19912;-88
2020/12/08 04:45:17;;;;;;;;;;;1.80;99.90;;;;;;5033770;28;19908;-86
2020/12/08 04:47:45;;;;;;;;;;;1.80;99.90;;;;;;5054050;28;20383;-86
2020/12/08 04:50:14;;;;;;;;;;;1.70;99.90;;;;;;5033588;28;20277;-87
2020/12/08 04:52:41;;;;;;;;;;;1.70;99.90;;;;;;5035938;28;19913;-88
2020/12/08 04:55:06;;;;;;;;;;;1.60;99.90;;;;;;5035960;28;19913;-87
2020/12/08 04:57:34;;;;;;;;;;;1.60;99.90;;;;;;5035773;28;19920;-88
2020/12/08 05:00:20;;;;;;;;;;;1.60;99.90;;;;;;5035788;28;19956;-85
2020/12/08 05:02:46;;;;;;;;;;;1.60;99.90;;;;;;5052731;28;19917;-87
2020/12/08 05:05:13;;;;;;;;;;;1.60;99.90;;;;;;5035975;28;20360;-86
2020/12/08 05:07:38;;;;;;;;;;;1.60;99.90;;;;;;5035287;28;19909;-88
2020/12/08 05:10:04;;;;;;;;;;;1.60;99.90;;;;;;5035028;28;19919;-88
2020/12/08 05:12:30;;;;;;;;;;;1.60;99.90;;;;;;5035080;28;19920;-86
2020/12/08 05:14:57;;;;;;;;;;;1.60;99.90;;;;;;5052099;28;19913;-88
2020/12/08 05:17:26;;;;;;;;;;;1.60;99.90;;;;;;5034843;28;20004;-86
2020/12/08 05:20:07;;;;;;;;;;;1.70;99.90;;;;;;5049795;28;19991;-88
2020/12/08 05:22:33;;;;;;;;;;;1.70;99.90;;;;;;5035274;28;19912;-87
2020/12/08 05:25:09;;;;;;;;;;;1.70;99.90;;;;;;5035252;28;19916;-86
2020/12/08 05:27:35;;;;;;;;;;;1.70;99.90;;;;;;5052179;28;20327;-89
2020/12/08 05:30:06;;;;;;;;;;;1.70;99.90;;;;;;5032791;28;19913;-86
2020/12/08 05:32:39;;;;;;;;;;;1.70;99.90;;;;;;5052553;28;19921;-87
2020/12/08 05:35:11;;;;;;;;;;;1.70;99.90;;;;;;5053083;28;19913;-87
2020/12/08 05:37:44;;;;;;;;;;;1.70;99.90;;;;;;5034565;28;20012;-88
2020/12/08 05:40:13;;;;;;;;;;;1.70;99.90;;;;;;5035089;28;20161;-87
2020/12/08 05:42:43;;;;;;;;;;;1.60;99.90;;;;;;5030026;28;20345;-88
2020/12/08 05:45:09;;;;;;;;;;;1.60;99.90;;;;;;5035604;28;19955;-87
2020/12/08 05:47:58;;;;;;;;;;;1.60;99.90;;;;;;5035023;28;19908;-87
2020/12/08 05:50:27;;;;;;;;;;;1.60;99.90;;;;;;5040110;28;19948;-88
2020/12/08 05:53:00;;;;;;;;;;;1.70;99.90;;;;;;5035016;28;19967;-87
2020/12/08 05:55:30;;;;;;;;;;;1.60;99.90;;;;;;5035516;28;20015;-89
2020/12/08 05:58:06;;;;;;;;;;;1.70;99.90;;;;;;5053073;28;19913;-88
2020/12/08 06:00:34;;;;;;;;;;;1.60;99.90;;;;;;5035389;28;19913;-86
2020/12/08 06:03:16;;;;;;;;;;;1.60;99.90;;;;;;5035745;28;19913;-87
2020/12/08 06:05:44;;;;;;;;;;;1.60;99.90;;;;;;5035343;28;19913;-87
2020/12/08 06:08:17;;;;;;;;;;;1.70;99.90;;;;;;5035314;28;19931;-87
2020/12/08 06:10:53;;;;;;;;;;;1.70;99.90;;;;;;5034738;28;19920;-88
2020/12/08 06:13:24;;;;;;;;;;;1.70;99.90;;;;;;5035475;28;19909;-87
2020/12/08 06:15:50;;;;;;;;;;;1.70;99.90;;;;;;5035334;28;19912;-88
2020/12/08 06:18:26;;;;;;;;;;;1.70;99.90;;;;;;5034798;28;19913;-87
2020/12/08 06:20:52;;;;;;;;;;;1.70;99.90;;;;;;5050076;28;20356;-86
2020/12/08 06:23:18;;;;;;;;;;;1.70;99.90;;;;;;5035173;28;19992;-87
2020/12/08 06:25:43;;;;;;;;;;;1.70;99.90;;;;;;5034947;28;20020;-87
2020/12/08 06:28:09;;;;;;;;;;;1.70;99.90;;;;;;5037120;28;20418;-89
2020/12/08 06:30:34;;;;;;;;;;;1.70;99.90;;;;;;5056529;28;20225;-88
2020/12/08 06:33:00;;;;;;;;;;;1.70;99.90;;;;;;5038761;28;19943;-86
2020/12/08 06:35:30;;;;;;;;;;;1.70;99.90;;;;;;5056741;28;19916;-86
2020/12/08 06:37:56;;;;;;;;;;;1.80;99.90;;;;;;5038835;28;19917;-88
2020/12/08 06:40:23;;;;;;;;;;;1.80;99.90;;;;;;5039165;28;20310;-88
2020/12/08 06:42:49;;;;;;;;;;;1.80;99.90;;;;;;5039196;28;20372;-89
2020/12/08 06:45:17;;;;;;;;;;;1.80;99.90;;;;;;5039159;28;19915;-87
2020/12/08 06:47:44;;;;;;;;;;;1.90;99.90;;;;;;5038821;28;19909;-86
2020/12/08 06:50:29;;;;;;;;;;;1.90;99.90;;;;;;5038647;28;19912;-87
2020/12/08 06:52:55;;;;;;;;;;;1.90;99.90;;;;;;5038813;28;19908;-86
2020/12/08 06:55:22;;;;;;;;;;;1.80;99.90;;;;;;5038655;28;19912;-86
2020/12/08 06:57:48;;;;;;;;;;;1.70;99.90;;;;;;5037696;28;19917;-86
2020/12/08 07:00:14;;;;;;;;;;;1.70;99.90;;;;;;5038279;28;19962;-87
2020/12/08 07:02:50;;;;;;;;;;;1.60;99.90;;;;;;5037929;28;19912;-85
2020/12/08 07:05:21;;;;;;;;;;;1.70;99.90;;;;;;5037996;28;19966;-87
2020/12/08 07:07:49;;;;;;;;;;;1.60;99.90;;;;;;5032647;28;20160;-85
2020/12/08 07:10:16;;;;;;;;;;;1.60;99.90;;;;;;5037893;28;19940;-87
2020/12/08 07:12:42;;;;;;;;;;;1.50;99.90;;;;;;5037779;28;19909;-88
2020/12/08 07:15:13;;;;;;;;;;;1.50;99.90;;;;;;5037940;28;20364;-87
2020/12/08 07:17:39;;;;;;;;;;;1.50;99.90;;;;;;5037616;28;19984;-87
2020/12/08 07:20:05;;;;;;;;;;;1.50;99.90;;;;;;5037799;28;19955;-86
2020/12/08 07:22:43;;;;;;;;;;;1.50;99.90;;;;;;5037958;28;19913;-88
2020/12/08 07:25:10;;;;;;;;;;;1.50;99.90;;;;;;5035660;28;19909;-88
2020/12/08 07:27:40;;;;;;;;;;;1.40;99.90;;;;;;5037501;28;19916;-85
2020/12/08 07:30:08;;;;;;;;;;;1.40;99.90;;;;;;5037558;28;20280;-87
2020/12/08 07:32:33;;;;;;;;;;;1.40;99.90;;;;;;5037374;28;20284;-88
2020/12/08 07:34:59;;;;;;;;;;;1.40;99.90;;;;;;5037470;28;19909;-87
2020/12/08 07:37:25;;;;;;;;;;;1.40;99.90;;;;;;5037209;28;19912;-87
2020/12/08 07:39:56;;;;;;;;;;;1.40;99.90;;;;;;5036643;28;19917;-87
2020/12/08 07:42:21;;;;;;;;;;;1.40;99.90;;;;;;5037276;28;19952;-87
2020/12/08 07:44:56;;;;;;;;;;;1.40;99.90;;;;;;5037043;28;19951;-87
2020/12/08 07:47:22;;;;;;;;;;;1.50;99.90;;;;;;5037225;28;19913;-87
2020/12/08 07:49:52;;;;;;;;;;;1.50;99.90;;;;;;5037111;28;19909;-86
2020/12/08 07:52:22;;;;;;;;;;;1.60;99.90;;;;;;5034430;28;20000;-86
2020/12/08 07:54:50;;;;;;;;;;;1.60;99.90;;;;;;5037103;28;19909;-87
2020/12/08 07:57:16;;;;;;;;;;;1.60;99.90;;;;;;5054829;28;19913;-88
2020/12/08 07:59:44;;;;;;;;;;;1.60;99.90;;;;;;5037334;28;19995;-87
2020/12/08 08:02:09;;;;;;;;;;;1.70;99.90;;;;;;5037172;28;19913;-87
2020/12/08 08:04:37;;;;;;;;;;;1.60;99.90;;;;;;5037000;28;19923;-87
2020/12/08 08:07:05;;;;;;;;;;;1.60;99.90;;;;;;5036796;28;19988;-86
2020/12/08 08:09:32;;;;;;;;;;;1.60;99.90;;;;;;5036515;28;19915;-86
2020/12/08 08:11:57;;;;;;;;;;;1.60;99.90;;;;;;5036748;28;19915;-86
2020/12/08 08:14:23;;;;;;;;;;;1.60;99.90;;;;;;5036640;28;19996;-87
2020/12/08 08:16:51;;;;;;;;;;;1.50;99.90;;;;;;5053178;28;20157;-87
2020/12/08 08:19:16;;;;;;;;;;;1.50;99.90;;;;;;5054509;28;19913;-86
2020/12/08 08:21:45;;;;;;;;;;;1.50;99.90;;;;;;5036421;28;20426;-86
2020/12/08 08:24:11;;;;;;;;;;;1.50;99.90;;;;;;5036518;28;19908;-87
2020/12/08 08:26:40;;;;;;;;;;;1.50;99.90;;;;;;5036333;28;20315;-87
2020/12/08 08:29:07;;;;;;;;;;;1.50;99.90;;;;;;5036632;28;20020;-87
2020/12/08 08:31:33;;;;;;;;;;;1.50;99.90;;;;;;5036439;28;19971;-87
2020/12/08 08:33:58;;;;;;;;;;;1.60;99.90;;;;;;5033829;28;20341;-87
2020/12/08 08:36:26;;;;;;;;;;;1.50;99.90;;;;;;5036111;28;19909;-88
2020/12/08 08:38:52;;;;;;;;;;;1.50;99.90;;;;;;5036177;28;19913;-85
2020/12/08 08:41:22;;;;;;;;;;;1.40;99.90;;;;;;5036429;28;19913;-86
2020/12/08 08:43:48;;;;;;;;;;;1.50;99.90;;;;;;5036356;28;20389;-86
2020/12/08 08:46:13;;;;;;;;;;;1.50;99.90;;;;;;5036574;28;19997;-86
2020/12/08 08:48:41;;;;;;;;;;;1.50;99.90;;;;;;5054159;28;20380;-87
2020/12/08 08:51:07;;;;;;;;;;;1.50;99.90;;;;;;5035507;28;19960;-87
2020/12/08 08:53:32;;;;;;;;;;;1.50;99.90;;;;;;5036500;28;19909;-87
2020/12/08 08:56:00;;;;;;;;;;;1.50;99.90;;;;;;5036475;28;19944;-87
2020/12/08 08:58:28;;;;;;;;;;;1.50;99.90;;;;;;5054081;28;19920;-87
2020/12/08 09:00:54;;;;;;;;;;;1.50;99.90;;;;;;5036029;28;19916;-87
2020/12/08 09:03:19;;;;;;;;;;;1.50;99.90;;;;;;5035997;28;20253;-86
2020/12/08 09:05:45;;;;;;;;;;;1.50;99.90;;;;;;5035682;28;20364;-87
2020/12/08 09:08:11;;;;;;;;;;;1.50;99.90;;;;;;5035952;28;19916;-86
2020/12/08 09:10:36;;;;;;;;;;;1.50;99.90;;;;;;5035899;28;19967;-87
2020/12/08 09:13:02;;;;;;;;;;;1.50;99.90;;;;;;5036108;28;19967;-86
2020/12/08 09:15:30;;;;;;;;;;;1.50;99.90;;;;;;5035814;28;19912;-88
2020/12/08 09:17:58;;;;;;;;;;;1.50;99.90;;;;;;5036504;28;19917;-87
2020/12/08 09:20:24;;;;;;;;;;;1.60;99.90;;;;;;5036377;28;20348;-86
2020/12/08 09:22:49;;;;;;;;;;;1.60;99.90;;;;;;5036501;28;19959;-85
2020/12/08 09:25:15;;;;;;;;;;;1.60;99.90;;;;;;5036495;28;19961;-86
2020/12/08 09:27:41;;;;;;;;;;;1.60;99.90;;;;;;5036447;28;19920;-87
2020/12/08 09:30:06;;;;;;;;;;;1.60;99.90;;;;;;5036176;28;19909;-87
2020/12/08 09:32:34;;;;;;;;;;;1.60;99.90;;;;;;5036141;28;20284;-87
2020/12/08 09:35:00;;;;;;;;;;;1.60;99.90;;;;;;5036065;28;19913;-87
2020/12/08 09:37:28;;;;;;;;;;;1.60;99.90;;;;;;5036179;28;20383;-87
2020/12/08 09:39:54;;;;;;;;;;;1.70;99.90;;;;;;5036388;28;19920;-86
2020/12/08 09:42:20;;;;;;;;;;;1.70;99.90;;;;;;5036424;28;19992;-87
2020/12/08 09:44:47;;;;;;;;;;;1.70;99.90;;;;;;5036210;28;19955;-87
2020/12/08 09:47:15;;;;;;;;;;;1.70;99.90;;;;;;5035697;28;19975;-87
2020/12/08 09:49:41;;;;;;;;;;;1.70;99.90;;;;;;5054227;28;19909;-95
2020/12/08 09:52:09;;;;;;;;;;;1.80;99.90;;;;;;5036382;28;19978;-93
2020/12/08 09:54:34;;;;;;;;;;;1.90;99.90;;;;;;5036517;28;20016;-92
2020/12/08 09:57:05;;;;;;;;;;;2.00;99.90;;;;;;5037541;28;19964;-92
2020/12/08 09:59:31;;;;;;;;;;;2.10;99.90;;;;;;5036717;28;19913;-91
2020/12/08 10:02:01;;;;;;;;;;;2.10;99.90;;;;;;5036446;28;20383;-92
2020/12/08 10:04:27;;;;;;;;;;;2.10;99.90;;;;;;5040289;28;19969;-93
2020/12/08 10:06:55;;;;;;;;;;;2.20;99.90;;;;;;5040462;28;19909;-93
2020/12/08 10:09:21;;;;;;;;;;;2.20;99.90;;;;;;5040612;28;20379;-92
2020/12/08 10:11:47;;;;;;;;;;;2.30;99.90;;;;;;5040134;28;19909;-89
2020/12/08 10:14:12;;;;;;;;;;;2.30;99.90;;;;;;5040113;28;19952;-94
2020/12/08 10:16:40;;;;;;;;;;;2.30;99.90;;;;;;5040313;28;19955;-89
2020/12/08 10:19:06;;;;;;;;;;;2.30;99.90;;;;;;5039947;28;19944;-91
2020/12/08 10:21:31;;;;;;;;;;;2.30;99.90;;;;;;5040630;28;19916;-92
2020/12/08 10:23:57;;;;;;;;;;;2.40;99.90;;;;;;5040725;28;19909;-92
2020/12/08 10:26:22;;;;;;;;;;;2.50;99.90;;;;;;5042948;28;19913;-93
2020/12/08 10:28:51;;;;;;;;;;;2.50;99.90;;;;;;5039764;28;19934;-93
2020/12/08 10:31:17;;;;;;;;;;;2.50;99.90;;;;;;5277713;22;19926;-83
2020/12/08 10:33:43;;;;;;;;;;;2.50;99.90;;;;;;5036176;28;19956;-83
2020/12/08 10:36:12;;;;;;;;;;;2.40;99.90;;;;;;5036222;28;19910;-83
2020/12/08 10:38:41;;;;;;;;;;;2.40;99.90;;;;;;5145544;22;20391;-86
2020/12/08 10:41:06;;;;;;;;;;;2.30;99.90;;;;;;5035842;28;19910;-87
2020/12/08 10:43:32;;;;;;;;;;;2.40;99.90;;;;;;5029953;28;19913;-88
2020/12/08 10:45:58;;;;;;;;;;;2.30;99.90;;;;;;5026169;28;19992;-86
2020/12/08 10:48:24;;;;;;;;;;;2.30;99.90;;;;;;5025180;28;19936;-87
2020/12/08 10:50:52;;;;;;;;;;;2.40;99.90;;;;;;5027453;28;19909;-86
2020/12/08 10:53:17;;;;;;;;;;;2.40;99.90;;;;;;5023645;28;19909;-86
2020/12/08 10:55:43;;;;;;;;;;;2.40;99.90;;;;;;5026461;28;20008;-86
2020/12/08 10:58:14;;;;;;;;;;;2.40;99.90;;;;;;5022957;28;20329;-87
2020/12/08 11:00:39;;;;;;;;;;;2.40;99.90;;;;;;5026566;28;20004;-86
2020/12/08 11:03:05;;;;;;;;;;;2.50;99.90;;;;;;5026604;28;19960;-87
2020/12/08 11:05:33;;;;;;;;;;;2.50;99.90;;;;;;5023441;28;19944;-87
2020/12/08 11:08:01;;;;;;;;;;;2.50;99.90;;;;;;5015473;28;20004;-87
2020/12/08 11:10:30;;;;;;;;;;;2.50;99.90;;;;;;5023540;28;19968;-87
2020/12/08 11:12:55;;;;;;;;;;;2.50;99.90;;;;;;5025453;28;19909;-85
2020/12/08 11:15:21;;;;;;;;;;;2.50;99.90;;;;;;5022248;28;20288;-88
2020/12/08 11:17:46;;;;;;;;;;;2.50;99.90;;;;;;5025986;28;19914;-86
2020/12/08 11:20:13;;;;;;;;;;;2.60;99.90;;;;;;5026807;28;20353;-87
2020/12/08 11:22:39;;;;;;;;;;;2.60;99.90;;;;;;5025934;28;19916;-87
2020/12/08 11:25:05;;;;;;;;;;;2.60;99.90;;;;;;5023158;28;19909;-87
2020/12/08 11:27:31;;;;;;;;;;;2.70;99.90;;;;;;5026828;28;20368;-88
2020/12/08 11:29:56;;;;;;;;;;;2.70;99.90;;;;;;5026197;28;19952;-87
2020/12/08 11:32:22;;;;;;;;;;;2.70;99.90;;;;;;5021487;28;19909;-88
2020/12/08 11:34:48;;;;;;;;;;;2.70;99.90;;;;;;5021079;28;19968;-87
2020/12/08 11:37:14;;;;;;;;;;;2.70;99.90;;;;;;5015280;28;19920;-87
2020/12/08 11:39:42;;;;;;;;;;;2.70;99.90;;;;;;5014843;28;19928;-88
2020/12/08 11:42:08;;;;;;;;;;;2.70;99.90;;;;;;5017351;28;19913;-89
2020/12/08 11:44:36;;;;;;;;;;;2.70;99.90;;;;;;5015007;28;20001;-87
2020/12/08 11:47:01;;;;;;;;;;;2.70;99.90;;;;;;5014856;28;19967;-89
2020/12/08 11:49:27;;;;;;;;;;;2.60;99.90;;;;;;5014884;28;19913;-86
2020/12/08 11:51:55;;;;;;;;;;;2.70;99.90;;;;;;5022735;28;19975;-89
2020/12/08 11:54:20;;;;;;;;;;;2.70;99.90;;;;;;5019577;28;19935;-89
2020/12/08 11:56:47;;;;;;;;;;;2.80;99.90;;;;;;5026724;28;19913;-88
2020/12/08 11:59:13;;;;;;;;;;;2.80;99.90;;;;;;5025953;28;19917;-89
2020/12/08 12:01:38;;;;;;;;;;;2.90;99.90;;;;;;5023209;28;19910;-87
2020/12/08 12:04:04;;;;;;;;;;;2.90;99.90;;;;;;5025986;28;19910;-88
2020/12/08 12:06:30;;;;;;;;;;;2.90;99.90;;;;;;5023556;28;19916;-88
2020/12/08 12:08:56;;;;;;;;;;;3.00;99.90;;;;;;5024742;28;19910;-88
2020/12/08 12:11:39;;;;;;;;;;;3.10;99.90;;;;;;5023223;28;20016;-86
2020/12/08 12:14:07;;;;;;;;;;;3.20;99.90;;;;;;5019776;28;19961;-86
2020/12/08 12:16:33;;;;;;;;;;;3.20;99.90;;;;;;5014439;28;20000;-88
2020/12/08 12:19:01;;;;;;;;;;;3.30;99.90;;;;;;5014423;28;20445;-89
2020/12/08 12:21:26;;;;;;;;;;;3.30;99.90;;;;;;5014252;28;19917;-87
2020/12/08 12:23:57;;;;;;;;;;;3.40;99.90;;;;;;5014169;28;19913;-90
2020/12/08 12:26:23;;;;;;;;;;;3.40;99.90;;;;;;5014031;28;20265;-89
2020/12/08 12:28:53;;;;;;;;;;;3.50;99.90;;;;;;5014149;28;19963;-90
2020/12/08 12:31:22;;;;;;;;;;;3.50;99.90;;;;;;5020426;28;19914;-88
2020/12/08 12:33:49;;;;;;;;;;;3.50;99.90;;;;;;5023305;28;19909;-88
2020/12/08 12:36:14;;;;;;;;;;;3.50;99.90;;;;;;5024368;28;19909;-88
2020/12/08 12:38:40;;;;;;;;;;;3.50;99.90;;;;;;5020014;28;19921;-89
2020/12/08 12:41:05;;;;;;;;;;;3.60;99.90;;;;;;5022425;28;19917;-86
2020/12/08 12:43:31;;;;;;;;;;;3.50;99.90;;;;;;5026193;28;19913;-86
2020/12/08 12:45:56;;;;;;;;;;;3.60;99.90;;;;;;5022201;28;20349;-87
2020/12/08 12:48:24;;;;;;;;;;;3.60;99.90;;;;;;5024583;28;19909;-90
2020/12/08 12:50:50;;;;;;;;;;;3.60;99.90;;;;;;5024187;28;19910;-87
2020/12/08 12:53:16;;;;;;;;;;;3.60;99.90;;;;;;5021781;28;19917;-89
2020/12/08 12:55:41;;;;;;;;;;;3.60;99.90;;;;;;5022186;28;19921;-88
2020/12/08 12:58:07;;;;;;;;;;;3.60;99.90;;;;;;5022546;28;20368;-88
2020/12/08 13:00:32;;;;;;;;;;;3.60;99.90;;;;;;5021199;28;19913;-89
2020/12/08 13:03:00;;;;;;;;;;;3.50;99.90;;;;;;5021712;28;19933;-89
2020/12/08 13:05:26;;;;;;;;;;;3.50;99.90;;;;;;5021533;28;19936;-88
2020/12/08 13:07:54;;;;;;;;;;;3.50;99.90;;;;;;5021222;28;19921;-88
2020/12/08 13:10:19;;;;;;;;;;;3.50;99.90;;;;;;5021265;28;19959;-88
2020/12/08 13:12:45;;;;;;;;;;;3.50;99.90;;;;;;5023754;28;20024;-89
2020/12/08 13:15:11;;;;;;;;;;;3.60;99.90;;;;;;5023109;28;19917;-88
2020/12/08 13:17:36;;;;;;;;;;;3.60;99.90;;;;;;5021592;28;19920;-88
2020/12/08 13:20:02;;;;;;;;;;;3.60;99.90;;;;;;5022877;28;19921;-88
2020/12/08 13:22:30;;;;;;;;;;;3.60;99.90;;;;;;5022936;28;19917;-89
2020/12/08 13:24:55;;;;;;;;;;;3.60;99.90;;;;;;5023840;28;19932;-88
2020/12/08 13:27:21;;;;;;;;;;;3.60;99.90;;;;;;5020977;28;20360;-88
2020/12/08 13:29:47;;;;;;;;;;;3.60;99.90;;;;;;5023476;28;20332;-89
2020/12/08 13:32:12;;;;;;;;;;;3.60;99.90;;;;;;5026031;28;19940;-87
2020/12/08 13:34:38;;;;;;;;;;;3.60;99.90;;;;;;5023421;28;20323;-88
2020/12/08 13:37:06;;;;;;;;;;;3.60;99.90;;;;;;5022598;28;19952;-89
2020/12/08 13:39:36;;;;;;;;;;;3.60;99.90;;;;;;5025408;28;20016;-88
2020/12/08 13:42:02;;;;;;;;;;;3.70;99.90;;;;;;5026118;28;19913;-88
2020/12/08 13:44:27;;;;;;;;;;;3.60;99.90;;;;;;5028412;28;19980;-89
2020/12/08 13:46:56;;;;;;;;;;;3.60;99.90;;;;;;5027869;28;19913;-88
2020/12/08 13:49:24;;;;;;;;;;;3.60;99.90;;;;;;5025754;28;20395;-89
2020/12/08 13:51:50;;;;;;;;;;;3.60;99.90;;;;;;5025718;28;19909;-89
2020/12/08 13:54:16;;;;;;;;;;;3.60;99.90;;;;;;5027083;28;19936;-89
2020/12/08 13:56:42;;;;;;;;;;;3.70;99.90;;;;;;5023962;28;19913;-88
2020/12/08 13:59:11;;;;;;;;;;;3.60;99.90;;;;;;5025807;28;20051;-87
2020/12/08 14:01:41;;;;;;;;;;;3.60;99.90;;;;;;5024200;28;19909;-89
2020/12/08 14:04:06;;;;;;;;;;;3.60;99.90;;;;;;5027252;28;19918;-88
2020/12/08 14:06:33;;;;;;;;;;;3.60;99.90;;;;;;5027094;28;20177;-88
2020/12/08 14:08:58;;;;;;;;;;;3.60;99.90;;;;;;5026709;28;20336;-88
2020/12/08 14:11:27;;;;;;;;;;;3.60;99.90;;;;;;5027631;28;19917;-88
2020/12/08 14:13:52;;;;;;;;;;;3.50;99.90;;;;;;5027588;28;20000;-88
2020/12/08 14:16:18;;;;;;;;;;;3.50;99.90;;;;;;5027631;28;20394;-89
2020/12/08 14:18:46;;;;;;;;;;;3.60;99.90;;;;;;5027306;28;19976;-88
2020/12/08 14:21:14;;;;;;;;;;;3.60;99.90;;;;;;5027471;28;19947;-89
2020/12/08 14:23:44;;;;;;;;;;;3.50;99.90;;;;;;5024995;28;19957;-88
2020/12/08 14:26:10;;;;;;;;;;;3.50;99.90;;;;;;5027162;28;19920;-89
2020/12/08 14:28:35;;;;;;;;;;;3.60;99.90;;;;;;5026438;28;20284;-88
2020/12/08 14:31:03;;;;;;;;;;;3.60;99.90;;;;;;5024938;28;19963;-88